createdAt,value
2018-05-18T00:00:49.645Z,22.63
2018-05-18T00:03:17.110Z,17.20
2018-05-18T00:05:44.578Z,16.20
2018-05-18T00:08:12.039Z,18.80
2018-05-18T00:10:39.528Z,23.93
2018-05-18T00:13:06.994Z,20.03
2018-05-18T00:15:35.234Z,16.13
2018-05-18T00:18:02.706Z,14.13
2018-05-18T00:20:30.190Z,17.60
2018-05-18T00:22:57.694Z,24.87
2018-05-18T00:25:25.170Z,16.30
2018-05-18T00:27:52.644Z,18.13
2018-05-18T00:30:20.112Z,22.40
2018-05-18T00:32:47.593Z,18.10
2018-05-18T00:35:15.082Z,16.57
2018-05-18T00:37:42.550Z,20.00
2018-05-18T00:40:10.778Z,23.40
2018-05-18T00:42:38.251Z,18.20
2018-05-18T00:45:06.491Z,16.93
2018-05-18T00:47:34.738Z,18.70
2018-05-18T00:50:02.215Z,19.60
2018-05-18T00:52:29.678Z,21.43
2018-05-18T00:54:57.150Z,17.00
2018-05-18T00:57:25.380Z,25.40
2018-05-18T00:59:52.884Z,16.80
2018-05-18T01:02:20.350Z,14.87
2018-05-18T01:04:47.832Z,19.17
2018-05-18T01:07:16.070Z,23.17
2018-05-18T01:09:43.544Z,22.23
2018-05-18T01:12:11.028Z,19.43
2018-05-18T01:14:39.267Z,21.93
2018-05-18T01:17:06.730Z,21.20
2018-05-18T01:19:34.200Z,20.80
2018-05-18T01:22:01.661Z,24.23
2018-05-18T01:24:29.142Z,17.70
2018-05-18T01:26:56.631Z,25.50
2018-05-18T01:29:24.877Z,20.40
2018-05-18T01:31:52.336Z,16.27
2018-05-18T01:34:19.812Z,19.70
2018-05-18T01:36:47.314Z,24.07
2018-05-18T01:39:15.548Z,22.20
2018-05-18T01:41:43.018Z,20.37
2018-05-18T01:44:11.240Z,18.57
2018-05-18T01:46:39.474Z,24.30
2018-05-18T01:49:07.738Z,30.83
2018-05-18T01:51:35.214Z,28.40
2018-05-18T01:54:02.680Z,21.10
2018-05-18T01:56:30.147Z,20.07
2018-05-18T01:58:57.606Z,21.23
2018-05-18T02:01:25.104Z,25.20
2018-05-18T02:03:52.570Z,28.63
2018-05-18T02:06:20.039Z,18.13
2018-05-18T02:08:48.284Z,23.07
2018-05-18T02:11:15.774Z,29.03
2018-05-18T02:13:43.248Z,24.33
2018-05-18T02:16:10.709Z,24.67
2018-05-18T02:18:38.182Z,28.20
2018-05-18T02:21:06.428Z,22.10
2018-05-18T02:23:33.901Z,21.63
2018-05-18T02:26:01.401Z,26.20
2018-05-18T02:28:29.634Z,28.00
2018-05-18T02:30:57.105Z,27.33
2018-05-18T02:33:24.573Z,23.17
2018-05-18T02:35:52.035Z,22.90
2018-05-18T02:38:19.513Z,26.53
2018-05-18T02:40:46.987Z,26.47
2018-05-18T02:43:15.223Z,25.37
2018-05-18T02:45:42.707Z,39.10
2018-05-18T02:48:10.179Z,24.07
2018-05-18T02:50:37.662Z,31.77
2018-05-18T02:53:05.889Z,27.73
2018-05-18T02:55:33.368Z,29.80
2018-05-18T02:58:00.846Z,29.73
2018-05-18T03:00:28.319Z,25.20
2018-05-18T03:02:55.814Z,28.93
2018-05-18T03:05:23.283Z,34.50
2018-05-18T03:07:50.759Z,24.70
2018-05-18T03:10:18.226Z,27.13
2018-05-18T03:12:45.696Z,21.97
2018-05-18T03:15:13.195Z,29.00
2018-05-18T03:17:40.662Z,26.77
2018-05-18T03:20:08.126Z,32.50
2018-05-18T03:22:35.602Z,20.17
2018-05-18T03:25:03.850Z,26.07
2018-05-18T03:27:31.405Z,23.07
2018-05-18T03:29:58.810Z,23.73
2018-05-18T03:32:27.046Z,32.00
2018-05-18T03:34:54.521Z,29.97
2018-05-18T03:37:21.980Z,31.27
2018-05-18T03:39:49.465Z,27.77
2018-05-18T03:42:16.942Z,28.67
2018-05-18T03:44:44.421Z,28.83
2018-05-18T03:47:12.663Z,30.73
2018-05-18T03:49:40.142Z,30.40
2018-05-18T03:52:07.643Z,30.83
2018-05-18T03:54:35.118Z,27.67
2018-05-18T03:57:02.594Z,27.63
2018-05-18T03:59:30.060Z,28.30
2018-05-18T04:02:09.456Z,28.70
2018-05-18T04:04:49.516Z,25.83
2018-05-18T04:07:28.876Z,28.77
2018-05-18T04:09:56.363Z,23.00
2018-05-18T04:12:23.834Z,27.80
2018-05-18T04:14:51.322Z,32.17
2018-05-18T04:17:18.793Z,34.40
2018-05-18T04:19:47.061Z,30.20
2018-05-18T04:22:14.522Z,32.50
2018-05-18T04:24:41.997Z,24.17
2018-05-18T04:27:09.497Z,29.10
2018-05-18T04:29:36.963Z,30.13
2018-05-18T04:32:04.439Z,35.83
2018-05-18T04:34:31.901Z,30.57
2018-05-18T04:36:59.385Z,34.77
2018-05-18T04:39:26.893Z,30.47
2018-05-18T04:41:55.130Z,24.00
2018-05-18T04:44:22.607Z,31.27
2018-05-18T04:46:50.082Z,29.83
2018-05-18T04:49:17.565Z,34.40
2018-05-18T04:51:45.827Z,29.20
2018-05-18T04:54:13.298Z,30.60
2018-05-18T04:56:40.778Z,31.23
2018-05-18T04:59:09.017Z,26.20
2018-05-18T05:01:36.501Z,29.13
2018-05-18T05:04:04.006Z,25.93
2018-05-18T05:06:31.478Z,29.97
2018-05-18T05:08:58.941Z,26.40
2018-05-18T05:11:26.430Z,28.33
2018-05-18T05:13:53.905Z,29.83
2018-05-18T05:16:21.407Z,23.10
2018-05-18T05:18:49.667Z,27.23
2018-05-18T05:21:17.149Z,27.50
2018-05-18T05:23:45.401Z,31.80
2018-05-18T05:26:12.877Z,32.63
2018-05-18T05:28:40.371Z,35.40
2018-05-18T05:31:07.850Z,31.60
2018-05-18T05:33:35.324Z,31.50
2018-05-18T05:36:02.800Z,34.33
2018-05-18T05:38:30.263Z,31.07
2018-05-18T05:40:57.767Z,36.80
2018-05-18T05:43:25.235Z,35.97
2018-05-18T05:45:53.483Z,34.33
2018-05-18T05:48:20.947Z,37.27
2018-05-18T05:50:49.181Z,40.13
2018-05-18T05:53:16.675Z,33.97
2018-05-18T05:55:44.154Z,36.90
2018-05-18T05:58:11.649Z,35.60
2018-05-18T06:00:39.897Z,37.70
2018-05-18T06:03:07.376Z,31.93
2018-05-18T06:05:34.871Z,37.40
2018-05-18T06:08:03.116Z,39.93
2018-05-18T06:10:30.588Z,42.27
2018-05-18T06:12:58.067Z,33.33
2018-05-18T06:15:26.321Z,35.57
2018-05-18T06:17:53.827Z,35.73
2018-05-18T06:20:22.075Z,34.93
2018-05-18T06:22:49.550Z,38.17
2018-05-18T06:25:17.034Z,37.33
2018-05-18T06:27:45.277Z,29.70
2018-05-18T06:30:12.775Z,33.63
2018-05-18T06:32:41.019Z,37.33
2018-05-18T06:35:08.629Z,34.00
2018-05-18T06:37:36.763Z,37.40
2018-05-18T06:40:04.255Z,38.60
2018-05-18T06:42:31.743Z,36.73
2018-05-18T06:44:59.222Z,33.70
2018-05-18T06:47:26.698Z,31.23
2018-05-18T06:49:54.166Z,32.53
2018-05-18T06:52:21.646Z,31.33
2018-05-18T06:54:49.147Z,37.33
2018-05-18T06:57:17.382Z,37.40
2018-05-18T06:59:44.890Z,32.93
2018-05-18T07:02:13.133Z,39.13
2018-05-18T07:04:40.607Z,41.13
2018-05-18T07:07:08.071Z,37.93
2018-05-18T07:09:35.542Z,39.63
2018-05-18T07:12:03.033Z,42.63
2018-05-18T07:14:31.271Z,43.43
2018-05-18T07:16:58.761Z,44.88
2018-05-18T07:19:26.238Z,46.03
2018-05-18T07:21:54.503Z,44.50
2018-05-18T07:24:21.973Z,42.10
2018-05-18T07:26:49.451Z,42.70
2018-05-18T07:29:17.686Z,43.17
2018-05-18T07:31:45.172Z,45.87
2018-05-18T07:34:12.648Z,47.57
2018-05-18T07:36:40.109Z,43.67
2018-05-18T07:39:07.608Z,49.50
2018-05-18T07:41:35.082Z,55.13
2018-05-18T07:44:02.570Z,41.43
2018-05-18T07:46:30.034Z,47.67
2018-05-18T07:48:57.512Z,49.40
2018-05-18T07:51:24.986Z,48.70
2018-05-18T07:53:52.450Z,42.10
2018-05-18T07:56:19.933Z,44.50
2018-05-18T07:58:48.171Z,53.67
2018-05-18T08:01:15.662Z,44.67
2018-05-18T08:03:43.131Z,47.30
2018-05-18T08:06:10.617Z,43.80
2018-05-18T08:08:38.095Z,48.03
2018-05-18T08:11:05.581Z,45.30
2018-05-18T08:13:33.037Z,46.73
2018-05-18T08:16:00.521Z,47.97
2018-05-18T08:18:28.004Z,45.23
2018-05-18T08:20:55.488Z,130.80
2018-05-18T08:23:35.689Z,97.33
2018-05-18T08:26:03.166Z,71.77
2018-05-18T08:28:42.464Z,48.03
2018-05-18T08:31:09.948Z,47.83
2018-05-18T08:33:37.440Z,46.33
2018-05-18T08:36:04.912Z,45.93
2018-05-18T08:38:32.406Z,48.63
2018-05-18T08:40:59.873Z,49.10
2018-05-18T08:43:27.348Z,46.50
2018-05-18T08:45:54.824Z,47.87
2018-05-18T08:48:22.296Z,45.37
2018-05-18T08:50:49.786Z,36.83
2018-05-18T08:53:17.277Z,43.40
2018-05-18T08:55:45.538Z,40.73
2018-05-18T08:58:13.006Z,45.10
2018-05-18T09:00:40.510Z,41.40
2018-05-18T09:03:07.982Z,44.53
2018-05-18T09:05:35.463Z,46.17
2018-05-18T09:08:02.935Z,44.93
2018-05-18T09:10:30.412Z,47.03
2018-05-18T09:12:57.881Z,43.20
2018-05-18T09:15:25.348Z,44.40
2018-05-18T09:17:52.852Z,45.10
2018-05-18T09:20:20.328Z,42.63
2018-05-18T09:22:47.813Z,39.20
2018-05-18T09:25:15.288Z,38.73
2018-05-18T09:27:42.760Z,52.87
2018-05-18T09:30:10.225Z,40.33
2018-05-18T09:32:37.707Z,44.17
2018-05-18T09:35:05.196Z,38.97
2018-05-18T09:37:32.668Z,40.30
2018-05-18T09:40:00.138Z,48.37
2018-05-18T09:42:27.622Z,44.67
2018-05-18T09:44:55.099Z,45.03
2018-05-18T09:47:22.602Z,44.40
2018-05-18T09:49:50.846Z,44.27
2018-05-18T09:52:18.328Z,45.17
2018-05-18T09:54:45.935Z,40.60
2018-05-18T09:57:14.046Z,42.23
2018-05-18T09:59:41.528Z,40.83
2018-05-18T10:02:08.997Z,37.93
2018-05-18T10:04:36.494Z,42.60
2018-05-18T10:07:04.051Z,51.73
2018-05-18T10:09:31.444Z,39.80
2018-05-18T10:11:58.912Z,40.20
2018-05-18T10:14:26.382Z,41.90
2018-05-18T10:16:53.854Z,40.60
2018-05-18T10:19:21.320Z,39.37
2018-05-18T10:21:48.806Z,39.77
2018-05-18T10:24:16.284Z,37.17
2018-05-18T10:26:43.754Z,40.67
2018-05-18T10:29:12.008Z,42.20
2018-05-18T10:31:39.484Z,40.50
2018-05-18T10:34:06.952Z,40.37
2018-05-18T10:36:34.435Z,35.53
2018-05-18T10:39:02.681Z,38.07
2018-05-18T10:41:30.160Z,36.70
2018-05-18T10:43:57.632Z,40.30
2018-05-18T10:46:25.867Z,34.43
2018-05-18T10:48:53.364Z,33.23
2018-05-18T10:51:20.844Z,33.43
2018-05-18T10:53:49.086Z,27.00
2018-05-18T10:56:16.560Z,35.30
2018-05-18T10:58:44.028Z,34.40
2018-05-18T11:01:11.494Z,32.90
2018-05-18T11:03:38.978Z,33.63
2018-05-18T11:06:06.456Z,31.77
2018-05-18T11:08:34.694Z,33.80
2018-05-18T11:11:02.171Z,31.47
2018-05-18T11:13:29.640Z,32.80
2018-05-18T11:15:57.098Z,32.40
2018-05-18T11:18:24.575Z,32.57
2018-05-18T11:20:52.810Z,30.47
2018-05-18T11:23:20.298Z,29.03
2018-05-18T11:25:47.772Z,32.97
2018-05-18T11:28:15.242Z,33.97
2018-05-18T11:30:42.720Z,27.60
2018-05-18T11:33:10.980Z,30.50
2018-05-18T11:35:38.437Z,27.07
2018-05-18T11:38:05.910Z,31.90
2018-05-18T11:40:33.388Z,33.97
2018-05-18T11:43:01.610Z,34.83
2018-05-18T11:45:29.125Z,34.03
2018-05-18T11:47:56.602Z,30.60
2018-05-18T11:50:24.060Z,30.87
2018-05-18T11:52:52.294Z,49.37
2018-05-18T11:55:19.775Z,34.00
2018-05-18T11:57:47.256Z,32.73
2018-05-18T12:00:14.723Z,27.77
2018-05-18T12:02:42.192Z,34.93
2018-05-18T12:05:10.440Z,32.17
2018-05-18T12:07:37.934Z,31.20
2018-05-18T12:10:05.400Z,29.37
2018-05-18T12:12:33.639Z,55.33
2018-05-18T12:15:01.111Z,33.73
2018-05-18T12:17:28.644Z,39.03
2018-05-18T12:19:56.133Z,32.53
2018-05-18T12:22:23.602Z,31.47
2018-05-18T12:24:51.283Z,25.70
2018-05-18T12:27:18.548Z,26.97
2018-05-18T12:29:46.025Z,37.10
2018-05-18T12:32:13.521Z,27.83
2018-05-18T12:34:41.007Z,28.90
2018-05-18T12:37:08.505Z,31.30
2018-05-18T12:39:35.985Z,36.37
2018-05-18T12:42:03.459Z,31.60
2018-05-18T12:44:31.716Z,41.40
2018-05-18T12:46:59.193Z,34.47
2018-05-18T12:49:26.677Z,32.27
2018-05-18T12:51:54.157Z,35.53
2018-05-18T12:54:21.635Z,32.07
2018-05-18T12:56:49.105Z,25.47
2018-05-18T12:59:16.597Z,23.60
2018-05-18T13:01:44.071Z,31.10
2018-05-18T13:04:11.537Z,108.77
2018-05-18T13:06:39.783Z,44.88
2018-05-18T13:09:07.299Z,37.13
2018-05-18T13:11:35.540Z,28.80
2018-05-18T13:14:03.024Z,32.00
2018-05-18T13:16:30.503Z,34.23
2018-05-18T13:18:58.743Z,36.33
2018-05-18T13:21:26.267Z,43.97
2018-05-18T13:23:53.745Z,37.53
2018-05-18T13:26:21.228Z,45.20
2018-05-18T13:28:48.713Z,34.93
2018-05-18T13:31:16.199Z,31.90
2018-05-18T13:33:44.465Z,30.97
2018-05-18T13:36:11.949Z,32.00
2018-05-18T13:38:40.238Z,30.30
2018-05-18T13:41:07.675Z,30.47
2018-05-18T13:43:35.179Z,26.53
2018-05-18T13:46:02.675Z,34.37
2018-05-18T13:48:30.172Z,37.47
2018-05-18T13:50:57.637Z,43.47
2018-05-18T13:53:25.123Z,28.00
2018-05-18T13:55:53.385Z,32.90
2018-05-18T13:58:21.653Z,31.67
2018-05-18T14:00:49.131Z,30.07
2018-05-18T14:03:16.601Z,28.83
2018-05-18T14:05:44.837Z,32.17
2018-05-18T14:08:12.323Z,29.20
2018-05-18T14:10:39.811Z,30.30
2018-05-18T14:13:08.060Z,27.17
2018-05-18T14:15:36.289Z,27.27
2018-05-18T14:18:04.527Z,30.13
2018-05-18T14:20:31.995Z,28.43
2018-05-18T14:22:59.485Z,30.83
2018-05-18T14:25:27.725Z,24.50
2018-05-18T14:27:55.199Z,39.13
2018-05-18T14:30:22.665Z,43.40
2018-05-18T14:32:50.143Z,28.10
2018-05-18T14:35:17.636Z,33.90
2018-05-18T14:37:45.905Z,34.10
2018-05-18T14:40:13.365Z,28.57
2018-05-18T14:42:40.841Z,24.13
2018-05-18T14:45:09.090Z,25.10
2018-05-18T14:47:36.595Z,63.00
2018-05-18T14:50:04.073Z,28.37
2018-05-18T14:52:31.538Z,29.30
2018-05-18T14:54:59.013Z,26.60
2018-05-18T14:57:27.342Z,28.80
2018-05-18T14:59:54.948Z,27.13
2018-05-18T15:02:22.420Z,28.67
2018-05-18T15:04:49.896Z,24.20
2018-05-18T15:07:17.373Z,22.87
2018-05-18T15:09:45.624Z,24.57
2018-05-18T15:12:13.114Z,27.63
2018-05-18T15:14:40.592Z,16.77
2018-05-18T15:17:08.197Z,20.23
2018-05-18T15:19:35.549Z,22.27
2018-05-18T15:22:03.789Z,23.63
2018-05-18T15:24:31.284Z,29.23
2018-05-18T15:26:59.527Z,20.80
2018-05-18T15:29:27.767Z,24.03
2018-05-18T15:31:56.017Z,17.57
2018-05-18T15:34:23.485Z,24.97
2018-05-18T15:36:50.965Z,18.93
2018-05-18T15:39:19.203Z,18.60
2018-05-18T15:41:46.679Z,19.97
2018-05-18T15:44:14.147Z,15.03
2018-05-18T15:46:41.616Z,21.57
2018-05-18T15:49:09.100Z,18.17
2018-05-18T15:51:37.341Z,15.63
2018-05-18T15:54:04.822Z,15.20
2018-05-18T15:56:32.305Z,14.67
2018-05-18T15:58:59.768Z,14.20
2018-05-18T16:01:28.035Z,16.73
2018-05-18T16:03:55.510Z,14.10
2018-05-18T16:06:23.754Z,15.17
2018-05-18T16:08:51.230Z,14.07
2018-05-18T16:11:18.710Z,15.90
2018-05-18T16:13:46.198Z,14.27
2018-05-18T16:16:14.503Z,11.50
2018-05-18T16:18:41.968Z,12.27
2018-05-18T16:21:09.444Z,10.03
2018-05-18T16:23:36.919Z,14.10
2018-05-18T16:26:04.400Z,13.17
2018-05-18T16:28:31.873Z,16.03
2018-05-18T16:30:59.360Z,14.93
2018-05-18T16:33:27.595Z,11.60
2018-05-18T16:35:55.066Z,14.03
2018-05-18T16:38:22.715Z,20.43
2018-05-18T16:40:50.271Z,12.23
2018-05-18T16:43:17.916Z,12.90
2018-05-18T16:45:45.420Z,10.93
2018-05-18T16:48:12.886Z,13.07
2018-05-18T16:50:40.373Z,13.97
2018-05-18T16:53:07.840Z,10.03
2018-05-18T16:55:35.309Z,13.63
2018-05-18T16:58:02.848Z,12.20
2018-05-18T17:00:31.029Z,14.57
2018-05-18T17:02:58.538Z,13.63
2018-05-18T17:05:26.774Z,10.67
2018-05-18T17:07:54.258Z,13.30
2018-05-18T17:10:21.740Z,12.17
2018-05-18T17:12:49.213Z,12.67
2018-05-18T17:15:17.462Z,12.40
2018-05-18T17:17:44.937Z,15.10
2018-05-18T17:20:12.414Z,12.73
2018-05-18T17:22:40.647Z,12.43
2018-05-18T17:25:08.138Z,13.10
2018-05-18T17:27:35.624Z,14.20
2018-05-18T17:30:03.864Z,12.47
2018-05-18T17:32:31.330Z,15.97
2018-05-18T17:34:58.818Z,13.57
2018-05-18T17:37:26.296Z,15.63
2018-05-18T17:39:54.578Z,15.40
2018-05-18T17:42:22.922Z,13.10
2018-05-18T17:44:51.069Z,15.40
2018-05-18T17:47:18.550Z,14.23
2018-05-18T17:49:46.033Z,14.27
2018-05-18T17:52:13.527Z,15.07
2018-05-18T17:54:41.001Z,14.40
2018-05-18T17:57:09.230Z,15.37
2018-05-18T17:59:36.694Z,14.87
2018-05-18T18:02:04.162Z,15.07
2018-05-18T18:04:31.666Z,13.63
2018-05-18T18:06:59.903Z,16.53
2018-05-18T18:09:27.376Z,13.40
2018-05-18T18:11:54.858Z,14.97
2018-05-18T18:14:22.329Z,13.97
2018-05-18T18:16:49.827Z,13.47
2018-05-18T18:19:17.308Z,13.60
2018-05-18T18:21:44.862Z,16.70
2018-05-18T18:24:12.278Z,18.73
2018-05-18T18:26:39.754Z,14.23
2018-05-18T18:29:07.243Z,18.13
2018-05-18T18:31:34.720Z,20.97
2018-05-18T18:34:02.207Z,14.93
2018-05-18T18:36:29.676Z,25.97
2018-05-18T18:38:57.144Z,22.43
2018-05-18T18:41:24.641Z,25.07
2018-05-18T18:43:52.882Z,22.73
2018-05-18T18:46:21.125Z,25.73
2018-05-18T18:48:48.600Z,22.77
2018-05-18T18:51:16.088Z,26.13
2018-05-18T18:53:43.604Z,20.33
2018-05-18T18:56:11.851Z,37.30
2018-05-18T18:58:39.358Z,23.27
2018-05-18T19:01:06.847Z,25.47
2018-05-18T19:03:34.334Z,22.60
2018-05-18T19:06:01.828Z,23.47
2018-05-18T19:08:29.376Z,28.00
2018-05-18T19:10:57.576Z,24.43
2018-05-18T19:13:25.052Z,23.93
2018-05-18T19:15:53.300Z,25.07
2018-05-18T19:18:20.798Z,25.63
2018-05-18T19:20:49.060Z,25.80
2018-05-18T19:23:16.534Z,26.47
2018-05-18T19:25:44.770Z,25.87
2018-05-18T19:28:12.250Z,29.30
2018-05-18T19:30:39.743Z,24.87
2018-05-18T19:33:07.992Z,26.40
2018-05-18T19:35:35.471Z,27.13
2018-05-18T19:38:02.945Z,25.63
2018-05-18T19:40:30.430Z,29.93
2018-05-18T19:42:58.704Z,27.23
2018-05-18T19:45:26.946Z,29.07
2018-05-18T19:47:54.448Z,25.50
2018-05-18T19:50:22.702Z,28.87
2018-05-18T19:52:50.206Z,30.27
2018-05-18T19:55:18.477Z,33.47
2018-05-18T19:57:46.728Z,26.73
2018-05-18T20:00:14.219Z,27.23
2018-05-18T20:02:42.486Z,36.07
2018-05-18T20:05:10.003Z,28.33
2018-05-18T20:07:37.472Z,31.87
2018-05-18T20:10:04.955Z,31.17
2018-05-18T20:12:32.458Z,31.87
2018-05-18T20:15:00.698Z,31.73
2018-05-18T20:17:28.176Z,33.20
2018-05-18T20:19:55.650Z,33.77
2018-05-18T20:22:23.133Z,30.20
2018-05-18T20:24:51.389Z,32.13
2018-05-18T20:27:18.890Z,31.53
2018-05-18T20:29:47.133Z,38.73
2018-05-18T20:32:14.618Z,34.50
2018-05-18T20:34:42.864Z,34.37
2018-05-18T20:37:10.346Z,35.30
2018-05-18T20:39:37.833Z,32.67
2018-05-18T20:42:06.071Z,35.77
2018-05-18T20:44:33.552Z,37.17
2018-05-18T20:47:01.035Z,34.47
2018-05-18T20:49:29.307Z,34.50
2018-05-18T20:51:56.770Z,34.30
2018-05-18T20:54:24.243Z,37.10
2018-05-18T20:56:52.499Z,35.53
2018-05-18T20:59:19.977Z,36.03
2018-05-18T21:01:47.472Z,33.50
2018-05-18T21:04:14.955Z,33.47
2018-05-18T21:06:42.433Z,35.70
2018-05-18T21:09:09.915Z,37.37
2018-05-18T21:11:38.170Z,38.60
2018-05-18T21:14:05.668Z,37.90
2018-05-18T21:16:33.144Z,35.63
2018-05-18T21:19:00.636Z,32.23
2018-05-18T21:21:28.107Z,30.83
2018-05-18T21:23:55.584Z,37.23
2018-05-18T21:26:23.081Z,30.60
2018-05-18T21:28:50.564Z,37.83
2018-05-18T21:31:18.035Z,35.33
2018-05-18T21:33:46.307Z,31.13
2018-05-18T21:36:13.799Z,31.53
2018-05-18T21:38:42.058Z,33.90
2018-05-18T21:41:09.530Z,28.87
2018-05-18T21:43:37.769Z,30.70
2018-05-18T21:46:05.257Z,29.37
2018-05-18T21:48:32.733Z,34.20
2018-05-18T21:51:00.245Z,28.00
2018-05-18T21:53:27.721Z,29.07
2018-05-18T21:55:55.195Z,31.23
2018-05-18T21:58:22.667Z,35.47
2018-05-18T22:00:50.154Z,36.30
2018-05-18T22:03:17.661Z,31.30
2018-05-18T22:05:45.135Z,32.83
2018-05-18T22:08:12.611Z,37.50
2018-05-18T22:10:40.100Z,32.97
2018-05-18T22:13:07.577Z,36.07
2018-05-18T22:15:35.097Z,34.97
2018-05-18T22:18:02.569Z,34.10
2018-05-18T22:20:30.047Z,34.90
2018-05-18T22:22:57.528Z,38.20
2018-05-18T22:25:25.011Z,33.83
2018-05-18T22:27:53.273Z,36.50
2018-05-18T22:30:20.769Z,32.20
2018-05-18T22:32:48.241Z,34.20
2018-05-18T22:35:15.723Z,29.23
2018-05-18T22:37:43.202Z,28.67
2018-05-18T22:40:10.685Z,32.17
2018-05-18T22:42:38.163Z,34.40
2018-05-18T22:45:06.405Z,32.50
2018-05-18T22:47:33.880Z,32.40
2018-05-18T22:50:01.357Z,32.50
2018-05-18T22:52:28.850Z,28.10
2018-05-18T22:54:57.089Z,32.57
2018-05-18T22:57:25.341Z,29.27
2018-05-18T22:59:52.815Z,28.83
2018-05-18T23:02:20.299Z,25.07
2018-05-18T23:04:47.810Z,24.03
2018-05-18T23:07:15.287Z,24.57
2018-05-18T23:09:42.765Z,26.73
2018-05-18T23:12:10.243Z,19.93
2018-05-18T23:14:37.711Z,24.17
2018-05-18T23:17:05.201Z,23.63
2018-05-18T23:19:32.681Z,27.50
2018-05-18T23:22:00.910Z,22.87
2018-05-18T23:24:29.147Z,23.67
2018-05-18T23:26:57.378Z,27.30
2018-05-18T23:29:24.884Z,26.73
2018-05-18T23:31:53.210Z,19.50
2018-05-18T23:34:20.609Z,24.10
2018-05-18T23:36:48.095Z,22.20
2018-05-18T23:39:16.335Z,19.73
2018-05-18T23:41:43.829Z,25.07
2018-05-18T23:44:11.305Z,22.37
2018-05-18T23:46:39.545Z,16.57
2018-05-18T23:49:07.019Z,20.07
2018-05-18T23:51:34.478Z,19.23
2018-05-18T23:54:01.969Z,19.17
2018-05-18T23:56:29.448Z,21.03
2018-05-18T23:58:57.678Z,19.70
